createdAt,value
2018-05-04T00:02:30.004Z,76.70
2018-05-04T00:05:10.245Z,76.90
2018-05-04T00:07:50.438Z,77.50
2018-05-04T00:10:30.625Z,77.90
2018-05-04T00:13:10.868Z,77.70
2018-05-04T00:15:51.104Z,78.30
2018-05-04T00:18:31.489Z,78.90
2018-05-04T00:21:12.121Z,79.20
2018-05-04T00:23:52.444Z,79.70
2018-05-04T00:26:33.557Z,79.90
2018-05-04T00:29:14.589Z,81.00
2018-05-04T00:31:56.617Z,81.90
2018-05-04T00:34:37.052Z,81.90
2018-05-04T00:37:17.380Z,81.90
2018-05-04T00:39:58.129Z,81.90
2018-05-04T00:42:38.576Z,81.90
2018-05-04T00:45:18.916Z,81.80
2018-05-04T00:48:00.198Z,81.90
2018-05-04T00:50:40.505Z,81.90
2018-05-04T00:53:20.841Z,81.70
2018-05-04T00:56:01.126Z,81.90
2018-05-04T00:58:41.576Z,81.80
2018-05-04T01:01:21.980Z,81.80
2018-05-04T01:04:02.271Z,82.00
2018-05-04T01:06:42.628Z,81.90
2018-05-04T01:09:22.961Z,81.90
2018-05-04T01:12:03.453Z,81.90
2018-05-04T01:14:43.684Z,81.90
2018-05-04T01:17:24.836Z,81.90
2018-05-04T01:20:05.152Z,82.10
2018-05-04T01:22:45.445Z,82.00
2018-05-04T01:25:26.277Z,82.10
2018-05-04T01:28:06.737Z,82.10
2018-05-04T01:30:47.052Z,82.00
2018-05-04T01:33:27.512Z,81.90
2018-05-04T01:36:08.512Z,82.00
2018-05-04T01:38:49.453Z,82.10
2018-05-04T01:41:29.853Z,82.00
2018-05-04T01:44:11.029Z,81.90
2018-05-04T01:46:51.390Z,82.00
2018-05-04T01:49:31.885Z,82.10
2018-05-04T01:52:12.517Z,82.10
2018-05-04T01:54:52.825Z,82.10
2018-05-04T01:57:33.481Z,82.10
2018-05-04T02:03:36.302Z,82.10
2018-05-04T02:06:16.899Z,82.10
2018-05-04T02:08:57.232Z,82.10
2018-05-04T02:11:37.612Z,82.10
2018-05-04T02:14:17.880Z,82.10
2018-05-04T02:16:58.060Z,82.20
2018-05-04T02:19:38.408Z,82.20
2018-05-04T02:22:18.732Z,82.20
2018-05-04T02:24:59.823Z,82.30
2018-05-04T02:27:40.118Z,82.40
2018-05-04T02:30:21.363Z,82.20
2018-05-04T02:33:01.666Z,83.50
2018-05-04T02:35:41.850Z,83.50
2018-05-04T02:38:22.950Z,83.30
2018-05-04T02:41:03.159Z,83.90
2018-05-04T02:43:43.590Z,83.50
2018-05-04T02:46:24.425Z,83.20
2018-05-04T02:49:04.745Z,83.60
2018-05-04T02:51:44.988Z,83.40
2018-05-04T02:54:25.802Z,83.90
2018-05-04T02:57:06.255Z,84.20
2018-05-04T02:59:46.673Z,84.70
2018-05-04T03:02:26.900Z,84.80
2018-05-04T03:05:07.248Z,85.10
2018-05-04T03:07:47.586Z,85.00
2018-05-04T03:10:27.893Z,84.60
2018-05-04T03:13:10.905Z,85.30
2018-05-04T03:15:51.890Z,85.40
2018-05-04T03:18:32.605Z,85.20
2018-05-04T03:21:12.971Z,85.30
2018-05-04T03:23:54.186Z,85.00
2018-05-04T03:26:34.550Z,85.30
2018-05-04T03:29:14.873Z,85.20
2018-05-04T03:31:55.734Z,85.30
2018-05-04T03:34:36.101Z,85.30
2018-05-04T03:37:16.436Z,85.20
2018-05-04T03:39:56.931Z,85.00
2018-05-04T03:42:37.245Z,85.20
2018-05-04T03:45:17.719Z,84.90
2018-05-04T03:47:57.894Z,85.60
2018-05-04T03:50:38.228Z,85.60
2018-05-04T03:53:18.696Z,85.40
2018-05-04T03:55:59.165Z,85.20
2018-05-04T03:58:57.383Z,84.90
2018-05-04T04:01:55.253Z,84.70
2018-05-04T04:04:35.770Z,84.80
2018-05-04T04:07:16.107Z,85.10
2018-05-04T04:09:56.580Z,85.20
2018-05-04T04:12:37.027Z,85.30
2018-05-04T04:15:18.446Z,85.40
2018-05-04T04:18:02.709Z,85.20
2018-05-04T04:20:44.648Z,85.20
2018-05-04T04:23:25.611Z,85.10
2018-05-04T04:26:06.078Z,85.00
2018-05-04T04:28:47.635Z,85.00
2018-05-04T04:31:28.938Z,84.80
2018-05-04T04:34:09.386Z,85.00
2018-05-04T04:36:49.668Z,85.50
2018-05-04T04:39:31.234Z,85.80
2018-05-04T04:42:11.487Z,85.90
2018-05-04T04:44:52.697Z,85.90
2018-05-04T04:47:32.992Z,85.70
2018-05-04T04:50:14.092Z,85.70
2018-05-04T04:52:55.071Z,85.60
2018-05-04T04:55:35.592Z,86.40
2018-05-04T04:58:15.892Z,86.90
2018-05-04T05:00:56.092Z,86.80
2018-05-04T05:03:36.505Z,86.90
2018-05-04T05:06:16.972Z,87.00
2018-05-04T05:08:57.391Z,87.40
2018-05-04T05:11:37.846Z,87.10
2018-05-04T05:14:18.177Z,87.40
2018-05-04T05:16:58.349Z,87.10
2018-05-04T05:19:38.548Z,86.80
2018-05-04T05:22:19.025Z,86.70
2018-05-04T05:25:00.090Z,86.70
2018-05-04T05:27:40.475Z,86.50
2018-05-04T05:30:21.383Z,86.60
2018-05-04T05:33:01.747Z,86.70
2018-05-04T05:35:42.182Z,86.70
2018-05-04T05:38:23.120Z,86.90
2018-05-04T05:41:03.444Z,87.10
2018-05-04T05:43:43.914Z,87.10
2018-05-04T05:46:24.649Z,87.00
2018-05-04T05:49:05.108Z,86.80
2018-05-04T05:51:45.602Z,87.30
2018-05-04T05:54:25.984Z,87.00
2018-05-04T05:57:06.529Z,87.00
2018-05-04T05:59:46.882Z,86.70
2018-05-04T06:02:27.412Z,86.80
2018-05-04T06:05:07.800Z,87.00
2018-05-04T06:07:48.126Z,87.50
2018-05-04T06:10:29.252Z,87.60
2018-05-04T06:13:10.505Z,87.20
2018-05-04T06:15:51.372Z,87.20
2018-05-04T06:18:31.712Z,87.40
2018-05-04T06:21:12.141Z,87.40
2018-05-04T06:23:52.935Z,87.10
2018-05-04T06:26:33.138Z,87.40
2018-05-04T06:29:13.614Z,87.80
2018-05-04T06:31:54.064Z,88.00
2018-05-04T06:34:34.401Z,87.80
2018-05-04T06:37:14.733Z,87.50
2018-05-04T06:39:55.304Z,87.20
2018-05-04T06:42:35.779Z,86.80
2018-05-04T06:45:17.132Z,86.50
2018-05-04T06:47:57.681Z,86.60
2018-05-04T06:50:38.052Z,86.90
2018-05-04T06:53:18.378Z,87.00
2018-05-04T06:55:58.741Z,87.30
2018-05-04T06:58:41.202Z,87.20
2018-05-04T07:01:23.076Z,87.00
2018-05-04T07:04:03.937Z,87.00
2018-05-04T07:06:45.160Z,86.60
2018-05-04T07:09:25.741Z,86.50
2018-05-04T07:12:06.205Z,86.20
2018-05-04T07:14:46.588Z,86.20
2018-05-04T07:17:27.907Z,86.20
2018-05-04T07:20:16.794Z,85.70
2018-05-04T07:22:59.033Z,84.90
2018-05-04T07:25:40.295Z,84.10
2018-05-04T07:28:20.494Z,84.00
2018-05-04T07:31:05.708Z,83.50
2018-05-04T07:33:46.764Z,83.50
2018-05-04T07:36:28.163Z,83.50
2018-05-04T07:39:09.777Z,83.50
2018-05-04T07:41:50.187Z,83.20
2018-05-04T07:44:31.217Z,82.80
2018-05-04T07:47:12.137Z,82.90
2018-05-04T07:49:53.155Z,82.80
2018-05-04T07:52:34.381Z,82.80
2018-05-04T07:55:14.891Z,82.50
2018-05-04T07:57:56.044Z,82.50
2018-05-04T08:00:36.425Z,82.40
2018-05-04T08:03:16.859Z,81.60
2018-05-04T08:05:57.333Z,81.50
2018-05-04T08:08:37.741Z,81.00
2018-05-04T08:11:18.047Z,80.90
2018-05-04T08:13:58.544Z,80.90
2018-05-04T08:16:39.813Z,80.90
2018-05-04T08:19:21.740Z,80.90
2018-05-04T08:22:02.037Z,81.00
2018-05-04T08:24:43.141Z,81.20
2018-05-04T08:27:24.222Z,81.10
2018-05-04T08:30:19.724Z,81.20
2018-05-04T08:33:00.382Z,81.10
2018-05-04T08:35:40.724Z,81.20
2018-05-04T08:38:22.513Z,81.30
2018-05-04T08:41:02.877Z,81.30
2018-05-04T08:43:43.064Z,81.40
2018-05-04T08:46:25.556Z,80.30
2018-05-04T08:49:06.887Z,80.20
2018-05-04T08:51:47.236Z,79.90
2018-05-04T08:54:27.521Z,80.40
2018-05-04T08:57:07.877Z,80.50
2018-05-04T08:59:48.422Z,80.20
2018-05-04T09:02:29.628Z,80.50
2018-05-04T09:05:10.883Z,80.50
2018-05-04T09:07:53.371Z,79.90
2018-05-04T09:10:34.484Z,81.30
2018-05-04T09:13:14.841Z,81.40
2018-05-04T09:15:57.201Z,81.40
2018-05-04T09:18:37.698Z,81.10
2018-05-04T09:21:19.047Z,80.40
2018-05-04T09:24:01.096Z,80.70
2018-05-04T09:26:42.161Z,80.00
2018-05-04T09:29:23.256Z,80.00
2018-05-04T09:32:03.630Z,80.00
2018-05-04T09:34:43.905Z,79.40
2018-05-04T09:37:24.829Z,80.00
2018-05-04T09:40:05.227Z,80.20
2018-05-04T09:43:06.625Z,79.60
2018-05-04T09:45:46.951Z,79.70
2018-05-04T09:48:27.261Z,79.60
2018-05-04T09:51:12.652Z,79.20
2018-05-04T09:53:53.653Z,78.90
2018-05-04T09:56:34.122Z,78.70
2018-05-04T09:59:14.524Z,78.30
2018-05-04T10:01:55.999Z,77.70
2018-05-04T10:04:37.297Z,77.50
2018-05-04T10:07:22.008Z,77.20
2018-05-04T10:10:02.432Z,77.70
2018-05-04T10:12:43.702Z,77.80
2018-05-04T10:15:24.162Z,78.00
2018-05-04T10:18:05.372Z,77.00
2018-05-04T10:20:45.722Z,76.90
2018-05-04T10:26:27.297Z,76.40
2018-05-04T10:29:07.580Z,76.50
2018-05-04T10:31:56.705Z,76.80
2018-05-04T10:34:38.504Z,76.90
2018-05-04T10:37:20.371Z,76.70
2018-05-04T10:40:02.677Z,76.10
2018-05-04T10:42:45.456Z,76.00
2018-05-04T10:45:27.463Z,75.30
2018-05-04T10:48:08.658Z,75.20
2018-05-04T10:50:49.016Z,74.90
2018-05-04T10:53:29.342Z,74.60
2018-05-04T10:56:10.362Z,74.70
2018-05-04T10:58:50.689Z,74.60
2018-05-04T11:01:32.105Z,74.60
2018-05-04T11:04:12.549Z,74.80
2018-05-04T11:06:53.241Z,74.60
2018-05-04T11:09:33.669Z,74.60
2018-05-04T11:12:15.494Z,74.80
2018-05-04T11:14:59.028Z,74.80
2018-05-04T11:17:39.335Z,75.40
2018-05-04T11:20:19.676Z,73.60
2018-05-04T11:23:00.559Z,73.40
2018-05-04T11:25:40.850Z,73.30
2018-05-04T11:28:21.036Z,73.30
2018-05-04T11:31:01.487Z,72.70
2018-05-04T11:33:42.702Z,72.20
2018-05-04T11:36:23.053Z,71.60
2018-05-04T11:39:03.588Z,71.30
2018-05-04T11:41:44.637Z,71.60
2018-05-04T11:44:25.857Z,71.00
2018-05-04T11:47:06.221Z,71.00
2018-05-04T11:49:46.465Z,70.60
2018-05-04T11:52:28.654Z,70.00
2018-05-04T11:55:08.887Z,70.00
2018-05-04T11:57:49.191Z,70.50
2018-05-04T12:00:29.729Z,70.00
2018-05-04T12:03:15.167Z,69.70
2018-05-04T12:05:56.018Z,69.20
2018-05-04T12:08:37.208Z,69.70
2018-05-04T12:11:18.837Z,69.60
2018-05-04T12:13:59.558Z,69.20
2018-05-04T12:16:39.918Z,68.90
2018-05-04T12:19:20.499Z,69.30
2018-05-04T12:22:01.730Z,69.80
2018-05-04T12:24:42.106Z,68.70
2018-05-04T12:27:22.449Z,68.80
2018-05-04T12:30:03.820Z,68.00
2018-05-04T12:32:44.274Z,68.80
2018-05-04T12:35:26.139Z,67.90
2018-05-04T12:38:07.307Z,67.60
2018-05-04T12:40:47.761Z,67.90
2018-05-04T12:43:29.370Z,67.70
2018-05-04T12:46:10.593Z,67.80
2018-05-04T12:48:51.081Z,68.00
2018-05-04T12:51:32.319Z,68.30
2018-05-04T12:54:14.488Z,67.20
2018-05-04T12:56:57.541Z,67.30
2018-05-04T12:59:42.062Z,67.70
2018-05-04T13:02:22.410Z,67.30
2018-05-04T13:05:03.688Z,67.80
2018-05-04T13:07:45.132Z,68.50
2018-05-04T13:10:29.114Z,68.00
2018-05-04T13:13:09.443Z,67.40
2018-05-04T13:15:50.701Z,67.20
2018-05-04T13:18:31.749Z,67.60
2018-05-04T13:21:13.577Z,67.50
2018-05-04T13:23:53.894Z,67.80
2018-05-04T13:26:34.161Z,67.80
2018-05-04T13:29:15.482Z,68.00
2018-05-04T13:31:56.605Z,68.00
2018-05-04T13:34:37.787Z,67.90
2018-05-04T13:37:19.249Z,68.20
2018-05-04T13:40:05.364Z,67.80
2018-05-04T13:42:47.367Z,67.80
2018-05-04T13:45:28.565Z,68.10
2018-05-04T13:48:10.978Z,67.90
2018-05-04T13:50:52.368Z,67.70
2018-05-04T13:53:32.638Z,68.30
2018-05-04T13:56:12.959Z,67.50
2018-05-04T13:58:53.288Z,68.00
2018-05-04T14:01:38.732Z,68.10
2018-05-04T14:04:19.176Z,67.60
2018-05-04T14:07:01.104Z,67.10
2018-05-04T14:09:45.669Z,67.90
2018-05-04T14:12:28.825Z,67.90
2018-05-04T14:15:11.005Z,68.10
2018-05-04T14:17:53.000Z,68.20
2018-05-04T14:20:36.325Z,68.50
2018-05-04T14:23:19.100Z,68.50
2018-05-04T14:26:01.430Z,68.60
2018-05-04T14:29:08.090Z,68.20
2018-05-04T14:31:59.896Z,67.60
2018-05-04T14:34:43.590Z,68.00
2018-05-04T14:37:27.235Z,68.20
2018-05-04T14:40:10.126Z,68.50
2018-05-04T14:42:51.454Z,68.60
2018-05-04T14:45:38.690Z,68.10
2018-05-04T14:48:19.139Z,68.20
2018-05-04T14:51:02.796Z,68.50
2018-05-04T14:53:45.972Z,68.70
2018-05-04T14:56:26.256Z,68.50
2018-05-04T14:59:07.640Z,68.50
2018-05-04T15:01:54.611Z,68.40
2018-05-04T15:04:43.505Z,68.80
2018-05-04T15:07:26.764Z,69.10
2018-05-04T15:10:07.974Z,69.10
2018-05-04T15:12:48.635Z,69.20
2018-05-04T15:15:30.829Z,69.20
2018-05-04T15:18:12.152Z,69.40
2018-05-04T15:20:59.346Z,69.30
2018-05-04T15:23:40.474Z,69.50
2018-05-04T15:26:22.486Z,69.70
2018-05-04T15:29:04.750Z,69.00
2018-05-04T15:35:16.135Z,69.20
2018-05-04T15:37:56.525Z,69.50
2018-05-04T15:40:37.243Z,69.20
2018-05-04T15:43:17.838Z,69.30
2018-05-04T15:45:59.324Z,69.60
2018-05-04T15:51:57.541Z,69.60
2018-05-04T15:54:37.937Z,69.70
2018-05-04T15:57:18.806Z,69.50
2018-05-04T16:00:01.850Z,69.60
2018-05-04T16:02:42.930Z,69.70
2018-05-04T16:05:23.371Z,70.00
2018-05-04T16:08:03.794Z,70.00
2018-05-04T16:10:44.353Z,70.10
2018-05-04T16:13:24.676Z,70.20
2018-05-04T16:16:05.073Z,70.30
2018-05-04T16:18:46.331Z,70.30
2018-05-04T16:21:27.909Z,70.40
2018-05-04T16:24:08.277Z,70.80
2018-05-04T16:26:49.310Z,71.00
2018-05-04T16:29:31.108Z,71.00
2018-05-04T16:32:14.719Z,71.40
2018-05-04T16:34:56.190Z,71.40
2018-05-04T16:37:37.363Z,71.90
2018-05-04T16:40:17.705Z,71.80
2018-05-04T16:42:58.757Z,71.90
2018-05-04T16:45:40.417Z,72.00
2018-05-04T16:51:38.001Z,71.90
2018-05-04T16:54:18.329Z,71.80
2018-05-04T16:56:59.184Z,71.80
2018-05-04T16:59:39.932Z,71.80
2018-05-04T17:02:21.456Z,71.90
2018-05-04T17:05:03.373Z,71.80
2018-05-04T17:07:44.098Z,72.00
2018-05-04T17:10:26.490Z,71.70
2018-05-04T17:13:06.966Z,71.80
2018-05-04T17:15:47.362Z,71.90
2018-05-04T17:18:29.596Z,71.90
2018-05-04T17:21:10.061Z,71.70
2018-05-04T17:23:50.517Z,71.80
2018-05-04T17:26:30.894Z,73.20
2018-05-04T17:29:11.225Z,72.00
2018-05-04T17:31:59.805Z,72.00
2018-05-04T17:34:40.982Z,72.30
2018-05-04T17:37:23.139Z,72.20
2018-05-04T17:40:03.510Z,72.30
2018-05-04T17:42:44.982Z,72.70
2018-05-04T17:45:25.548Z,72.50
2018-05-04T17:48:06.780Z,72.20
2018-05-04T17:50:48.969Z,72.20
2018-05-04T17:53:32.320Z,72.20
2018-05-04T17:56:12.640Z,72.20
2018-05-04T17:58:53.825Z,71.80
2018-05-04T18:01:35.028Z,71.80
2018-05-04T18:04:15.522Z,72.10
2018-05-04T18:06:57.441Z,72.20
2018-05-04T18:09:38.009Z,71.70
2018-05-04T18:25:46.361Z,72.80
2018-05-04T18:28:28.567Z,73.10
2018-05-04T18:31:09.065Z,73.10
2018-05-04T18:33:49.513Z,72.90
2018-05-04T18:36:30.128Z,72.70
2018-05-04T18:39:10.513Z,72.50
2018-05-04T18:41:51.589Z,72.20
2018-05-04T18:44:32.477Z,71.90
2018-05-04T18:47:13.936Z,71.70
2018-05-04T18:49:55.617Z,71.70
2018-05-04T18:52:35.931Z,71.70
2018-05-04T18:55:16.333Z,71.40
2018-05-04T18:57:56.496Z,70.70
2018-05-04T19:01:01.868Z,70.80
2018-05-04T19:03:42.222Z,70.70
2018-05-04T19:06:22.859Z,70.10
2018-05-04T19:09:03.220Z,70.00
2018-05-04T19:11:44.511Z,70.10
2018-05-04T19:17:29.100Z,70.00
2018-05-04T19:20:16.138Z,69.70
2018-05-04T19:22:57.501Z,70.00
2018-05-04T19:25:37.754Z,69.40
2018-05-04T19:28:18.102Z,69.60
2018-05-04T19:31:00.491Z,70.20
2018-05-04T19:33:41.664Z,70.10
2018-05-04T19:36:28.550Z,70.10
2018-05-04T19:39:10.631Z,70.10
2018-05-04T19:41:51.848Z,70.10
2018-05-04T19:44:33.324Z,70.10
2018-05-04T19:47:13.791Z,70.10
2018-05-04T19:49:54.157Z,70.20
2018-05-04T19:52:34.567Z,70.00
2018-05-04T19:55:15.016Z,69.90
2018-05-04T19:58:02.566Z,70.00
2018-05-04T20:00:46.378Z,70.10
2018-05-04T20:03:29.046Z,70.10
2018-05-04T20:06:10.840Z,70.30
2018-05-04T20:08:54.141Z,70.20
2018-05-04T20:11:38.360Z,70.30
2018-05-04T20:14:19.245Z,70.50
2018-05-04T20:17:00.684Z,70.30
2018-05-04T20:19:41.005Z,70.20
2018-05-04T20:22:22.525Z,70.60
2018-05-04T20:25:04.029Z,70.80
2018-05-04T20:27:49.289Z,71.00
2018-05-04T20:30:32.808Z,71.00
2018-05-04T20:33:13.460Z,71.20
2018-05-04T20:35:54.275Z,71.50
2018-05-04T20:38:34.686Z,71.40
2018-05-04T20:41:15.221Z,71.40
2018-05-04T20:43:56.535Z,71.70
2018-05-04T20:46:36.994Z,71.70
2018-05-04T20:49:18.209Z,71.80
2018-05-04T20:52:06.385Z,71.80
2018-05-04T20:54:46.873Z,71.90
2018-05-04T20:57:27.515Z,71.90
2018-05-04T21:00:09.531Z,72.00
2018-05-04T21:02:52.081Z,72.50
2018-05-04T21:05:34.046Z,72.60
2018-05-04T21:08:23.328Z,72.70
2018-05-04T21:11:03.837Z,72.50
2018-05-04T21:13:44.144Z,72.60
2018-05-04T21:16:24.609Z,73.00
2018-05-04T21:19:06.999Z,72.90
2018-05-04T21:24:36.480Z,73.00
2018-05-04T21:27:20.556Z,73.20
2018-05-04T21:30:04.258Z,73.40
2018-05-04T21:32:45.921Z,73.90
2018-05-04T21:35:26.676Z,73.70
2018-05-04T21:38:08.796Z,73.80
2018-05-04T21:40:52.093Z,73.90
2018-05-04T21:43:32.484Z,73.90
2018-05-04T21:46:12.888Z,74.20
2018-05-04T21:48:54.091Z,74.40
2018-05-04T21:52:00.871Z,74.50
2018-05-04T21:54:41.970Z,74.50
2018-05-04T21:57:22.302Z,74.70
2018-05-04T22:00:04.828Z,74.80
2018-05-04T22:02:48.961Z,74.80
2018-05-04T22:05:30.265Z,74.90
2018-05-04T22:08:11.869Z,75.20
2018-05-04T22:10:53.320Z,75.00
2018-05-04T22:13:34.560Z,74.90
2018-05-04T22:16:15.465Z,75.20
2018-05-04T22:18:56.864Z,75.40
2018-05-04T22:21:46.276Z,75.90
2018-05-04T22:24:29.813Z,75.60
2018-05-04T22:27:10.155Z,76.00
2018-05-04T22:29:51.977Z,75.50
2018-05-04T22:32:32.364Z,75.60
2018-05-04T22:35:14.967Z,75.60
2018-05-04T22:37:56.581Z,75.60
2018-05-04T22:40:37.472Z,76.10
2018-05-04T22:43:18.676Z,76.40
2018-05-04T22:45:59.384Z,76.50
2018-05-04T22:48:39.768Z,76.50
2018-05-04T22:51:20.828Z,76.30
2018-05-04T22:54:04.236Z,76.00
2018-05-04T22:56:48.978Z,76.20
2018-05-04T22:59:31.447Z,76.10
2018-05-04T23:02:13.157Z,76.70
2018-05-04T23:04:54.430Z,76.50
2018-05-04T23:07:36.556Z,76.80
2018-05-04T23:10:19.123Z,77.50
2018-05-04T23:12:59.657Z,77.80
2018-05-04T23:15:40.048Z,78.00
2018-05-04T23:18:20.388Z,78.10
2018-05-04T23:21:09.080Z,78.20
2018-05-04T23:23:50.473Z,78.10
2018-05-04T23:26:31.246Z,77.90
2018-05-04T23:29:15.821Z,77.60
2018-05-04T23:31:56.319Z,77.70
2018-05-04T23:34:37.653Z,77.60
2018-05-04T23:37:18.795Z,77.30
2018-05-04T23:39:59.120Z,77.50
2018-05-04T23:42:39.871Z,77.70
2018-05-04T23:45:23.536Z,78.10
2018-05-04T23:48:07.247Z,78.30
2018-05-04T23:50:49.200Z,78.80
2018-05-04T23:53:29.540Z,78.90
2018-05-04T23:56:11.441Z,78.70
2018-05-04T23:58:52.561Z,78.80
